Time;durP1;ratioP1;P1;durP2;ratioP2;P2;SDS_P1;SDS_P2;PMS_P1;PMS_P2;Temp;Humidity;BMP_temperature;BMP_pressure;BME280_temperature;BME280_humidity;BME280_pressure;Samples;Min_cycle;Max_cycle;Signal;HPM_P1;HPM_P2
2022/05/03 00:00:05;;;;;;;;;;;12.00;99.90;;;;;;5136208;27;19982;-77
2022/05/03 00:02:31;;;;;;;;;;;12.00;99.90;;;;;;5155278;27;20376;-77
2022/05/03 00:05:07;;;;;;;;;;;12.00;99.90;;;;;;5154933;27;19950;-77
2022/05/03 00:07:51;;;;;;;;;;;11.90;99.90;;;;;;5155548;27;19998;-77
2022/05/03 00:10:39;;;;;;;;;;;11.90;99.90;;;;;;5155404;27;19908;-77
2022/05/03 00:13:11;;;;;;;;;;;11.90;99.90;;;;;;5154270;27;19916;-77
2022/05/03 00:15:39;;;;;;;;;;;11.80;99.90;;;;;;5155157;27;20329;-77
2022/05/03 00:18:05;;;;;;;;;;;11.80;99.90;;;;;;5154660;27;19971;-77
2022/05/03 00:20:31;;;;;;;;;;;11.80;99.90;;;;;;5155168;27;20044;-77
2022/05/03 00:22:58;;;;;;;;;;;11.90;99.90;;;;;;5154762;27;19907;-77
2022/05/03 00:25:24;;;;;;;;;;;11.80;99.90;;;;;;5154875;27;19960;-77
2022/05/03 00:27:51;;;;;;;;;;;11.80;99.90;;;;;;5155028;27;20002;-76
2022/05/03 00:30:17;;;;;;;;;;;11.80;99.90;;;;;;5155231;27;19911;-78
2022/05/03 00:32:42;;;;;;;;;;;11.80;99.90;;;;;;5155170;27;19971;-77
2022/05/03 00:35:09;;;;;;;;;;;11.70;99.90;;;;;;5136039;27;19961;-78
2022/05/03 00:37:34;;;;;;;;;;;11.70;99.90;;;;;;5154847;27;19907;-77
2022/05/03 00:40:00;;;;;;;;;;;11.80;99.90;;;;;;5135965;27;20069;-77
2022/05/03 00:42:40;;;;;;;;;;;11.80;99.90;;;;;;5154785;27;19967;-77
2022/05/03 00:45:12;;;;;;;;;;;11.70;99.90;;;;;;5154190;27;19990;-77
2022/05/03 00:47:43;;;;;;;;;;;11.70;99.90;;;;;;5136384;27;19907;-77
2022/05/03 00:50:12;;;;;;;;;;;11.80;99.90;;;;;;5154597;27;19914;-76
2022/05/03 00:52:45;;;;;;;;;;;11.80;99.90;;;;;;5154475;27;19911;-77
2022/05/03 00:55:11;;;;;;;;;;;11.80;99.90;;;;;;5153866;27;19940;-77
2022/05/03 00:57:37;;;;;;;;;;;11.80;99.90;;;;;;5154418;27;19919;-76
2022/05/03 01:00:07;;;;;;;;;;;11.80;99.90;;;;;;5154189;27;19914;-76
2022/05/03 01:02:52;;;;;;;;;;;11.80;99.90;;;;;;5154629;27;19911;-76
2022/05/03 01:05:25;;;;;;;;;;;11.80;99.90;;;;;;5135626;27;19907;-77
2022/05/03 01:07:58;;;;;;;;;;;11.80;99.90;;;;;;5154378;27;19942;-77
2022/05/03 01:10:32;;;;;;;;;;;11.90;99.90;;;;;;5136162;27;19962;-77
2022/05/03 01:13:00;;;;;;;;;;;11.90;99.90;;;;;;5153830;27;19911;-76
2022/05/03 01:15:31;;;;;;;;;;;11.90;99.90;;;;;;5154552;27;19922;-77
2022/05/03 01:18:15;;;;;;;;;;;11.90;99.90;;;;;;5157695;27;19908;-77
2022/05/03 01:20:40;;;;;;;;;;;11.80;99.90;;;;;;5161459;27;19930;-77
2022/05/03 01:23:12;;;;;;;;;;;11.80;99.90;;;;;;5160908;27;20355;-77
2022/05/03 01:25:46;;;;;;;;;;;11.80;99.90;;;;;;5161077;27;20427;-77
2022/05/03 01:28:11;;;;;;;;;;;11.80;99.90;;;;;;5160602;27;20014;-77
2022/05/03 01:30:37;;;;;;;;;;;11.80;99.90;;;;;;5161609;27;19950;-77
2022/05/03 01:33:06;;;;;;;;;;;11.70;99.90;;;;;;5153667;27;19924;-76
2022/05/03 01:35:37;;;;;;;;;;;11.80;99.90;;;;;;5138277;27;20366;-77
2022/05/03 01:38:11;;;;;;;;;;;11.80;99.90;;;;;;5138677;27;19915;-76
2022/05/03 01:40:36;;;;;;;;;;;11.80;99.90;;;;;;5139455;27;19912;-77
2022/05/03 01:43:13;;;;;;;;;;;11.80;99.90;;;;;;5138224;27;19976;-76
2022/05/03 01:46:02;;;;;;;;;;;11.70;99.90;;;;;;5139646;27;19907;-76
2022/05/03 01:50:18;;;;;;;;;;;11.70;99.90;;;;;;5126091;27;19907;-76
2022/05/03 01:51:28;;;;;;;;;;;11.70;99.90;;;;;;5138864;27;19915;-76
2022/05/03 01:54:08;;;;;;;;;;;11.70;99.90;;;;;;5140439;27;19962;-76
2022/05/03 01:56:41;;;;;;;;;;;11.70;99.90;;;;;;5140372;27;20253;-77
2022/05/03 01:59:09;;;;;;;;;;;11.80;99.90;;;;;;5139836;27;19907;-77
2022/05/03 02:01:39;;;;;;;;;;;11.70;99.90;;;;;;5140386;27;19954;-77
2022/05/03 02:04:23;;;;;;;;;;;11.70;99.90;;;;;;5139681;27;19961;-77
2022/05/03 02:07:06;;;;;;;;;;;11.70;99.90;;;;;;5140055;27;19931;-77
2022/05/03 02:09:52;;;;;;;;;;;11.70;99.90;;;;;;5139212;27;21286;-77
2022/05/03 02:12:19;;;;;;;;;;;11.80;99.90;;;;;;5139220;27;19964;-77
2022/05/03 02:14:50;;;;;;;;;;;11.80;99.90;;;;;;5140395;27;19920;-77
2022/05/03 02:17:31;;;;;;;;;;;11.70;99.90;;;;;;5139667;27;19952;-77
2022/05/03 02:20:15;;;;;;;;;;;11.70;99.90;;;;;;5140100;27;19907;-77
2022/05/03 02:22:58;;;;;;;;;;;11.70;99.90;;;;;;5140126;27;19907;-77
2022/05/03 02:25:36;;;;;;;;;;;11.70;99.90;;;;;;5139670;27;20364;-77
2022/05/03 02:28:11;;;;;;;;;;;11.60;99.90;;;;;;5139208;27;19908;-76
2022/05/03 02:30:38;;;;;;;;;;;11.70;99.90;;;;;;5135542;27;19908;-77
2022/05/03 02:33:05;;;;;;;;;;;11.70;99.90;;;;;;5135990;27;20011;-77
2022/05/03 02:35:31;;;;;;;;;;;11.70;99.90;;;;;;5137040;27;20244;-77
2022/05/03 02:37:57;;;;;;;;;;;11.70;99.90;;;;;;5136751;27;20375;-76
2022/05/03 02:40:29;;;;;;;;;;;11.70;99.90;;;;;;5117706;27;19907;-76
2022/05/03 02:42:58;;;;;;;;;;;11.70;99.90;;;;;;5136720;27;19922;-76
2022/05/03 02:45:24;;;;;;;;;;;11.70;99.90;;;;;;5117748;27;19951;-76
2022/05/03 02:48:08;;;;;;;;;;;11.70;99.90;;;;;;5136368;27;19950;-76
2022/05/03 02:50:42;;;;;;;;;;;11.70;99.90;;;;;;5136064;27;19995;-76
2022/05/03 02:53:30;;;;;;;;;;;11.60;99.90;;;;;;5135913;27;19923;-76
2022/05/03 02:56:19;;;;;;;;;;;11.60;99.90;;;;;;5135678;27;19907;-76
2022/05/03 02:59:03;;;;;;;;;;;11.50;99.90;;;;;;5122292;27;20460;-77
2022/05/03 03:01:50;;;;;;;;;;;11.50;99.90;;;;;;5136412;27;19912;-76
2022/05/03 03:04:34;;;;;;;;;;;11.60;99.90;;;;;;5135777;27;19986;-76
2022/05/03 03:07:00;;;;;;;;;;;11.60;99.90;;;;;;5136239;27;19918;-76
2022/05/03 03:09:29;;;;;;;;;;;11.60;99.90;;;;;;5135765;27;19918;-76
2022/05/03 03:12:25;;;;;;;;;;;11.60;99.90;;;;;;5136024;27;19912;-77
2022/05/03 03:14:55;;;;;;;;;;;11.60;99.90;;;;;;5113500;27;19915;-76
2022/05/03 03:17:28;;;;;;;;;;;11.60;99.90;;;;;;5135428;27;19907;-76
2022/05/03 03:19:59;;;;;;;;;;;11.60;99.90;;;;;;5136061;27;19932;-76
2022/05/03 03:22:28;;;;;;;;;;;11.60;99.90;;;;;;5135321;27;19907;-76
2022/05/03 03:24:55;;;;;;;;;;;11.60;99.90;;;;;;5135897;27;20006;-76
2022/05/03 03:27:21;;;;;;;;;;;11.50;99.90;;;;;;5135100;27;20453;-76
2022/05/03 03:29:48;;;;;;;;;;;11.50;99.90;;;;;;5135936;27;19914;-77
2022/05/03 03:32:15;;;;;;;;;;;11.50;99.90;;;;;;5116563;27;19912;-76
2022/05/03 03:34:42;;;;;;;;;;;11.50;99.90;;;;;;5135616;27;19911;-76
2022/05/03 03:37:09;;;;;;;;;;;11.50;99.90;;;;;;5134992;27;19908;-76
2022/05/03 03:39:36;;;;;;;;;;;11.50;99.90;;;;;;5135253;27;20288;-76
2022/05/03 03:42:02;;;;;;;;;;;11.50;99.90;;;;;;5135010;27;19914;-76
2022/05/03 03:44:28;;;;;;;;;;;11.50;99.90;;;;;;5134822;27;19907;-76
2022/05/03 03:46:54;;;;;;;;;;;11.50;99.90;;;;;;5135446;27;19957;-76
2022/05/03 03:49:20;;;;;;;;;;;11.50;99.90;;;;;;5134749;27;19911;-76
2022/05/03 03:51:47;;;;;;;;;;;11.50;99.90;;;;;;5134992;27;20477;-76
2022/05/03 03:54:13;;;;;;;;;;;11.50;99.90;;;;;;5134748;27;20356;-76
2022/05/03 03:56:39;;;;;;;;;;;11.50;99.90;;;;;;5134758;27;20292;-76
2022/05/03 03:59:05;;;;;;;;;;;11.50;99.90;;;;;;5134847;27;19907;-75
2022/05/03 04:01:30;;;;;;;;;;;11.50;99.90;;;;;;5134647;27;20336;-77
2022/05/03 04:03:56;;;;;;;;;;;11.50;99.90;;;;;;5134696;27;20369;-77
2022/05/03 04:06:22;;;;;;;;;;;11.50;99.90;;;;;;5134502;27;19911;-77
2022/05/03 04:08:48;;;;;;;;;;;11.40;99.90;;;;;;5134266;27;19913;-76
2022/05/03 04:11:14;;;;;;;;;;;11.40;99.90;;;;;;5133824;27;19912;-76
2022/05/03 04:13:40;;;;;;;;;;;11.40;99.90;;;;;;5134434;27;20436;-76
2022/05/03 04:16:06;;;;;;;;;;;11.40;99.90;;;;;;5134109;27;19960;-76
2022/05/03 04:18:44;;;;;;;;;;;11.40;99.90;;;;;;5134158;27;19907;-76
2022/05/03 04:21:16;;;;;;;;;;;11.40;99.90;;;;;;5134255;27;19919;-76
2022/05/03 04:23:45;;;;;;;;;;;11.40;99.90;;;;;;5134590;27;19962;-76
2022/05/03 04:26:11;;;;;;;;;;;11.30;99.90;;;;;;5133762;27;19907;-76
2022/05/03 04:28:37;;;;;;;;;;;11.30;99.90;;;;;;5134581;27;19914;-77
2022/05/03 04:31:03;;;;;;;;;;;11.30;99.90;;;;;;5134230;27;19908;-77
2022/05/03 04:33:29;;;;;;;;;;;11.40;99.90;;;;;;5133940;27;20106;-77
2022/05/03 04:35:54;;;;;;;;;;;11.40;99.90;;;;;;5134498;27;20353;-77
2022/05/03 04:38:20;;;;;;;;;;;11.40;99.90;;;;;;5133750;27;19911;-80
2022/05/03 04:40:45;;;;;;;;;;;11.40;99.90;;;;;;5134398;27;19908;-80
2022/05/03 04:43:11;;;;;;;;;;;11.40;99.90;;;;;;5133897;27;20451;-80
2022/05/03 04:45:37;;;;;;;;;;;11.40;99.90;;;;;;5133962;27;19915;-80
2022/05/03 04:48:02;;;;;;;;;;;11.40;99.90;;;;;;5133973;27;19907;-79
2022/05/03 04:50:28;;;;;;;;;;;11.40;99.90;;;;;;5133753;27;19912;-80
2022/05/03 04:52:53;;;;;;;;;;;11.40;99.90;;;;;;5133477;27;20027;-80
2022/05/03 04:55:19;;;;;;;;;;;11.40;99.90;;;;;;5133713;27;19923;-79
2022/05/03 04:57:44;;;;;;;;;;;11.40;99.90;;;;;;5134537;27;20315;-79
2022/05/03 05:00:10;;;;;;;;;;;11.40;99.90;;;;;;5133480;27;19911;-77
2022/05/03 05:02:37;;;;;;;;;;;11.40;99.90;;;;;;5133801;27;20000;-78
2022/05/03 05:05:03;;;;;;;;;;;11.40;99.90;;;;;;5134027;27;19907;-78
2022/05/03 05:07:28;;;;;;;;;;;11.40;99.90;;;;;;5133188;27;20816;-77
2022/05/03 05:12:38;;;;;;;;;;;11.40;99.90;;;;;;5133820;27;19919;-77
2022/05/03 05:15:04;;;;;;;;;;;11.40;99.90;;;;;;5134052;27;19912;-77
2022/05/03 05:17:32;;;;;;;;;;;11.30;99.90;;;;;;5133259;28;20516;-77
2022/05/03 05:19:58;;;;;;;;;;;11.30;99.90;;;;;;5133968;28;20379;-77
2022/05/03 05:22:23;;;;;;;;;;;11.30;99.90;;;;;;5133207;28;19943;-76
2022/05/03 05:24:50;;;;;;;;;;;11.30;99.90;;;;;;5133252;27;20381;-77
2022/05/03 05:27:16;;;;;;;;;;;11.30;99.90;;;;;;5134086;28;19914;-77
2022/05/03 05:29:42;;;;;;;;;;;11.30;99.90;;;;;;5134109;28;20284;-77
2022/05/03 05:32:08;;;;;;;;;;;11.30;99.90;;;;;;5132952;27;19962;-77
2022/05/03 05:34:33;;;;;;;;;;;11.30;99.90;;;;;;5133867;28;20264;-77
2022/05/03 05:36:59;;;;;;;;;;;11.30;99.90;;;;;;5133569;28;19908;-77
2022/05/03 05:39:24;;;;;;;;;;;11.30;99.90;;;;;;5132773;28;19914;-76
2022/05/03 05:41:56;;;;;;;;;;;11.30;99.90;;;;;;5133534;28;20389;-76
2022/05/03 05:44:21;;;;;;;;;;;11.30;99.90;;;;;;5133047;28;20352;-76
2022/05/03 05:46:47;;;;;;;;;;;11.30;99.90;;;;;;5133422;28;19907;-76
2022/05/03 05:49:12;;;;;;;;;;;11.30;99.90;;;;;;5133224;28;20352;-75
2022/05/03 05:51:38;;;;;;;;;;;11.40;99.90;;;;;;5133291;28;19915;-77
2022/05/03 05:54:04;;;;;;;;;;;11.40;99.90;;;;;;5133523;28;19911;-76
2022/05/03 05:56:29;;;;;;;;;;;11.40;99.90;;;;;;5132619;28;19946;-77
2022/05/03 05:58:55;;;;;;;;;;;11.40;99.90;;;;;;5133674;28;19947;-76
2022/05/03 06:01:35;;;;;;;;;;;11.50;99.90;;;;;;5114283;28;20256;-76
2022/05/03 06:04:00;;;;;;;;;;;11.50;99.90;;;;;;5134652;27;20413;-76
2022/05/03 06:06:26;;;;;;;;;;;11.50;99.90;;;;;;5136390;27;19908;-75
2022/05/03 06:08:52;;;;;;;;;;;11.50;99.90;;;;;;5137324;27;20375;-76
2022/05/03 06:11:17;;;;;;;;;;;11.50;99.90;;;;;;5136210;27;20264;-76
2022/05/03 06:13:43;;;;;;;;;;;11.60;99.90;;;;;;5137240;27;20291;-77
2022/05/03 06:16:09;;;;;;;;;;;11.60;99.90;;;;;;5137107;27;19907;-76
2022/05/03 06:18:35;;;;;;;;;;;11.60;99.90;;;;;;5136404;27;19919;-76
2022/05/03 06:21:03;;;;;;;;;;;11.70;99.90;;;;;;5137007;27;20276;-76
2022/05/03 06:23:29;;;;;;;;;;;11.70;99.90;;;;;;5136491;27;19915;-77
2022/05/03 06:25:54;;;;;;;;;;;11.80;99.90;;;;;;5118679;27;19908;-77
2022/05/03 06:28:20;;;;;;;;;;;11.80;99.90;;;;;;5145845;27;19914;-76
2022/05/03 06:30:46;;;;;;;;;;;11.90;99.90;;;;;;5136983;27;19907;-76
2022/05/03 06:33:11;;;;;;;;;;;11.90;99.90;;;;;;5134388;27;19915;-76
2022/05/03 06:35:37;;;;;;;;;;;11.90;99.90;;;;;;5135779;27;19907;-76
2022/05/03 06:38:02;;;;;;;;;;;12.00;99.90;;;;;;5144414;27;20244;-76
2022/05/03 06:40:28;;;;;;;;;;;12.10;99.90;;;;;;5146147;27;19907;-76
2022/05/03 06:42:56;;;;;;;;;;;12.10;99.90;;;;;;5139401;27;20021;-77
2022/05/03 06:45:22;;;;;;;;;;;12.10;99.90;;;;;;5135560;27;19958;-76
2022/05/03 06:47:48;;;;;;;;;;;12.20;99.90;;;;;;5135673;27;19957;-76
2022/05/03 06:50:14;;;;;;;;;;;12.30;99.90;;;;;;5135488;27;19935;-76
2022/05/03 06:52:40;;;;;;;;;;;12.20;99.90;;;;;;5134302;27;20399;-76
2022/05/03 06:55:06;;;;;;;;;;;12.40;99.90;;;;;;5116849;27;19911;-76
2022/05/03 06:57:32;;;;;;;;;;;12.40;99.90;;;;;;5135162;27;19919;-76
2022/05/03 07:00:00;;;;;;;;;;;12.40;99.90;;;;;;5136064;27;19907;-76
2022/05/03 07:02:27;;;;;;;;;;;12.60;99.90;;;;;;5117157;27;19973;-76
2022/05/03 07:04:53;;;;;;;;;;;12.50;99.90;;;;;;5136113;27;19960;-76
2022/05/03 07:07:18;;;;;;;;;;;12.60;99.90;;;;;;5135567;27;19912;-76
2022/05/03 07:09:44;;;;;;;;;;;12.70;99.90;;;;;;5135476;27;19907;-76
2022/05/03 07:12:10;;;;;;;;;;;12.50;99.90;;;;;;5135943;27;19921;-77
2022/05/03 07:14:35;;;;;;;;;;;12.50;99.90;;;;;;5134746;27;20356;-77
2022/05/03 07:17:01;;;;;;;;;;;12.70;99.90;;;;;;5116787;27;20006;-76
2022/05/03 07:22:55;;;;;;;;;;;13.10;99.90;;;;;;5134083;27;19919;-77
2022/05/03 07:24:56;;;;;;;;;;;13.20;99.90;;;;;;5117489;27;19908;-76
2022/05/03 07:27:21;;;;;;;;;;;13.30;99.90;;;;;;5129447;27;19908;-76
2022/05/03 07:29:47;;;;;;;;;;;13.30;99.90;;;;;;5138204;27;19959;-77
2022/05/03 07:32:12;;;;;;;;;;;13.40;99.90;;;;;;5134770;27;19964;-76
2022/05/03 07:34:38;;;;;;;;;;;13.40;99.90;;;;;;5134567;27;20034;-77
2022/05/03 07:37:04;;;;;;;;;;;13.50;99.90;;;;;;5135303;27;20257;-76
2022/05/03 07:39:30;;;;;;;;;;;13.60;99.90;;;;;;5140072;27;19916;-76
2022/05/03 07:41:57;;;;;;;;;;;13.70;99.90;;;;;;5145870;27;20407;-77
2022/05/03 07:44:23;;;;;;;;;;;13.90;99.90;;;;;;5149242;27;19915;-76
2022/05/03 07:46:49;;;;;;;;;;;14.10;99.90;;;;;;5155338;27;20022;-77
2022/05/03 07:49:14;;;;;;;;;;;14.20;99.90;;;;;;5145422;27;19911;-77
2022/05/03 07:51:42;;;;;;;;;;;14.20;99.90;;;;;;5142692;27;20002;-77
2022/05/03 07:54:09;;;;;;;;;;;14.20;99.90;;;;;;5136170;27;19919;-77
2022/05/03 07:56:35;;;;;;;;;;;14.20;99.90;;;;;;5140171;27;20275;-77
2022/05/03 07:59:00;;;;;;;;;;;14.30;99.90;;;;;;5139632;27;19919;-77
2022/05/03 08:01:26;;;;;;;;;;;14.20;99.90;;;;;;5155099;27;20010;-76
2022/05/03 08:03:51;;;;;;;;;;;14.30;99.90;;;;;;5155550;27;19907;-77
2022/05/03 08:06:17;;;;;;;;;;;14.50;99.90;;;;;;5155010;27;19914;-77
2022/05/03 08:08:43;;;;;;;;;;;14.40;99.90;;;;;;5154047;27;20455;-77
2022/05/03 08:11:08;;;;;;;;;;;14.60;99.90;;;;;;5141006;27;19908;-77
2022/05/03 08:13:34;;;;;;;;;;;14.50;99.90;;;;;;5133857;27;20360;-77
2022/05/03 08:16:01;;;;;;;;;;;14.50;99.90;;;;;;5134445;27;19951;-76
2022/05/03 08:18:27;;;;;;;;;;;14.60;99.90;;;;;;5133743;27;19907;-76
2022/05/03 08:20:53;;;;;;;;;;;14.70;99.90;;;;;;5134473;27;19953;-77
2022/05/03 08:23:19;;;;;;;;;;;14.80;99.90;;;;;;5134356;27;20331;-77
2022/05/03 08:25:44;;;;;;;;;;;14.90;99.90;;;;;;5133514;27;19954;-77
2022/05/03 08:28:10;;;;;;;;;;;14.90;99.90;;;;;;5132651;27;19967;-77
2022/05/03 08:30:36;;;;;;;;;;;15.00;99.90;;;;;;5133557;27;19907;-77
2022/05/03 08:33:01;;;;;;;;;;;15.00;99.90;;;;;;5133498;27;19951;-77
2022/05/03 08:35:27;;;;;;;;;;;15.20;99.90;;;;;;5133536;27;19912;-77
2022/05/03 08:43:22;;;;;;;;;;;15.60;99.90;;;;;;5133479;27;19915;-77
2022/05/03 08:45:49;;;;;;;;;;;15.90;99.90;;;;;;5133821;27;19914;-78
2022/05/03 08:48:15;;;;;;;;;;;16.00;99.90;;;;;;5132918;27;19928;-77
2022/05/03 08:50:41;;;;;;;;;;;16.10;99.90;;;;;;5133166;27;19915;-78
2022/05/03 08:53:07;;;;;;;;;;;16.00;99.90;;;;;;5133715;27;20457;-77
2022/05/03 08:55:33;;;;;;;;;;;15.90;99.90;;;;;;5133110;27;19915;-77
2022/05/03 08:57:58;;;;;;;;;;;16.00;99.90;;;;;;5119826;27;19919;-78
2022/05/03 09:00:25;;;;;;;;;;;16.10;99.90;;;;;;5142347;27;19915;-75
2022/05/03 09:02:52;;;;;;;;;;;15.90;99.90;;;;;;5120274;27;20267;-78
2022/05/03 09:05:18;;;;;;;;;;;16.00;99.90;;;;;;5133206;27;19907;-77
2022/05/03 09:07:48;;;;;;;;;;;16.10;99.90;;;;;;5132272;27;20521;-78
2022/05/03 09:10:24;;;;;;;;;;;16.30;99.90;;;;;;5133987;27;19911;-78
2022/05/03 09:12:50;;;;;;;;;;;16.30;99.90;;;;;;5141486;27;20009;-78
2022/05/03 09:15:29;;;;;;;;;;;16.50;99.90;;;;;;5144207;27;20057;-77
2022/05/03 09:17:55;;;;;;;;;;;16.50;99.90;;;;;;5133574;28;20048;-77
2022/05/03 09:25:54;;;;;;;;;;;16.20;99.90;;;;;;5133817;28;19952;-78
2022/05/03 09:28:21;;;;;;;;;;;16.30;99.90;;;;;;5132643;28;19919;-78
2022/05/03 09:30:50;;;;;;;;;;;16.20;99.90;;;;;;5133365;27;19908;-78
2022/05/03 09:33:17;;;;;;;;;;;16.10;99.90;;;;;;5144630;27;19911;-78
2022/05/03 09:35:42;;;;;;;;;;;16.10;99.90;;;;;;5123589;27;20367;-77
2022/05/03 09:38:08;;;;;;;;;;;16.10;99.90;;;;;;5153996;27;19907;-79
2022/05/03 09:40:44;;;;;;;;;;;16.20;99.90;;;;;;5139594;27;19908;-78
2022/05/03 09:43:10;;;;;;;;;;;16.30;99.90;;;;;;5151956;27;20015;-78
2022/05/03 09:45:36;;;;;;;;;;;16.20;99.90;;;;;;5136368;27;19914;-78
2022/05/03 09:48:02;;;;;;;;;;;16.10;99.90;;;;;;5136270;27;19908;-78
2022/05/03 09:50:27;;;;;;;;;;;16.10;99.90;;;;;;5136478;27;20236;-78
2022/05/03 09:52:53;;;;;;;;;;;16.10;99.90;;;;;;5136658;27;19911;-78
2022/05/03 09:55:32;;;;;;;;;;;16.10;99.90;;;;;;5136527;27;19915;-78
2022/05/03 09:57:59;;;;;;;;;;;16.00;99.90;;;;;;5117437;27;20272;-78
2022/05/03 10:00:25;;;;;;;;;;;16.10;99.90;;;;;;5097659;28;19957;-78
2022/05/03 10:02:52;;;;;;;;;;;16.20;99.90;;;;;;5116314;28;19908;-79
2022/05/03 10:05:20;;;;;;;;;;;16.30;99.90;;;;;;5120986;27;20015;-79
2022/05/03 10:07:46;;;;;;;;;;;16.30;99.90;;;;;;5123351;27;19908;-78
2022/05/03 10:10:12;;;;;;;;;;;16.40;99.90;;;;;;5126664;27;20245;-80
2022/05/03 10:12:38;;;;;;;;;;;16.60;99.90;;;;;;5126120;27;20360;-79
2022/05/03 10:15:04;;;;;;;;;;;16.80;99.90;;;;;;5116387;28;19916;-79
2022/05/03 10:20:38;;;;;;;;;;;17.10;99.90;;;;;;5116310;28;19964;-79
2022/05/03 10:23:24;;;;;;;;;;;17.30;99.90;;;;;;5115258;28;20257;-79
2022/05/03 10:25:53;;;;;;;;;;;17.50;99.90;;;;;;5114888;28;19950;-81
2022/05/03 10:28:19;;;;;;;;;;;17.80;99.90;;;;;;5121107;27;19911;-80
2022/05/03 10:31:04;;;;;;;;;;;17.80;99.90;;;;;;5124517;27;19943;-80
2022/05/03 10:33:29;;;;;;;;;;;17.50;99.90;;;;;;5120493;27;20396;-80
2022/05/03 10:35:55;;;;;;;;;;;17.30;99.90;;;;;;5115461;28;19946;-80
2022/05/03 10:38:37;;;;;;;;;;;17.10;99.90;;;;;;5115945;28;19912;-80
2022/05/03 10:41:05;;;;;;;;;;;16.80;99.90;;;;;;5117638;27;19946;-80
2022/05/03 10:43:31;;;;;;;;;;;16.60;99.90;;;;;;5115506;27;19908;-80
2022/05/03 10:45:58;;;;;;;;;;;16.40;99.90;;;;;;5123658;27;19935;-80
2022/05/03 10:48:27;;;;;;;;;;;16.40;99.90;;;;;;5126238;27;19915;-80
2022/05/03 10:50:55;;;;;;;;;;;16.30;99.90;;;;;;5131756;27;19907;-80
2022/05/03 10:53:23;;;;;;;;;;;16.20;99.90;;;;;;5136223;27;19975;-79
2022/05/03 10:56:03;;;;;;;;;;;16.20;99.90;;;;;;5136152;27;20352;-79
2022/05/03 10:58:30;;;;;;;;;;;16.20;99.90;;;;;;5156258;27;20424;-79
2022/05/03 11:01:17;;;;;;;;;;;16.20;99.90;;;;;;5156446;27;19907;-80
2022/05/03 11:03:48;;;;;;;;;;;16.20;99.90;;;;;;5145024;27;19914;-79
2022/05/03 11:06:17;;;;;;;;;;;16.10;99.90;;;;;;5156183;27;20412;-80
2022/05/03 11:11:47;;;;;;;;;;;16.10;99.90;;;;;;5155413;27;19919;-79
2022/05/03 11:14:22;;;;;;;;;;;16.30;99.90;;;;;;5156310;27;19918;-80
2022/05/03 11:17:03;;;;;;;;;;;16.30;99.90;;;;;;5148935;27;19911;-80
2022/05/03 11:19:29;;;;;;;;;;;16.50;99.90;;;;;;5144682;27;19907;-78
2022/05/03 11:21:55;;;;;;;;;;;16.60;99.90;;;;;;5150700;27;20423;-80
2022/05/03 11:24:21;;;;;;;;;;;16.80;99.90;;;;;;5156294;27;19958;-79
2022/05/03 11:26:48;;;;;;;;;;;16.90;99.90;;;;;;5155954;27;20593;-79
2022/05/03 11:29:14;;;;;;;;;;;17.00;99.90;;;;;;5156052;27;19908;-80
2022/05/03 11:31:45;;;;;;;;;;;17.00;99.90;;;;;;5155235;27;19915;-79
2022/05/03 11:34:10;;;;;;;;;;;17.10;99.90;;;;;;5154605;27;19954;-80
2022/05/03 11:36:36;;;;;;;;;;;17.10;99.90;;;;;;5154719;27;19965;-79
2022/05/03 11:39:03;;;;;;;;;;;17.20;99.90;;;;;;5155003;27;19907;-79
2022/05/03 11:41:29;;;;;;;;;;;17.20;99.90;;;;;;5155486;27;20351;-78
2022/05/03 11:43:54;;;;;;;;;;;17.30;99.90;;;;;;5148381;27;19908;-79
2022/05/03 11:46:22;;;;;;;;;;;17.50;99.90;;;;;;5135401;27;20296;-79
2022/05/03 11:48:59;;;;;;;;;;;17.70;99.90;;;;;;5134123;27;19916;-79
2022/05/03 11:57:08;;;;;;;;;;;18.20;99.90;;;;;;5121054;27;20433;-78
2022/05/03 11:59:34;;;;;;;;;;;18.20;99.90;;;;;;5113489;28;19911;-79
2022/05/03 12:02:18;;;;;;;;;;;18.10;99.90;;;;;;5113983;28;19953;-80
2022/05/03 12:05:11;;;;;;;;;;;17.90;99.90;;;;;;5113531;28;19912;-79
2022/05/03 12:07:37;;;;;;;;;;;17.80;99.90;;;;;;5113082;28;19908;-79
2022/05/03 12:10:23;;;;;;;;;;;17.60;99.90;;;;;;5113979;28;19908;-80
2022/05/03 12:13:08;;;;;;;;;;;17.40;99.90;;;;;;5113036;28;19912;-80
2022/05/03 12:15:43;;;;;;;;;;;17.20;99.90;;;;;;5113252;28;19947;-79
2022/05/03 12:18:11;;;;;;;;;;;17.00;99.90;;;;;;5113158;28;19912;-80
2022/05/03 12:20:43;;;;;;;;;;;16.90;99.90;;;;;;5094525;28;20279;-80
2022/05/03 12:23:17;;;;;;;;;;;16.80;99.90;;;;;;5113616;28;19915;-80
2022/05/03 12:25:44;;;;;;;;;;;16.70;99.90;;;;;;5113471;28;19955;-80
2022/05/03 12:28:10;;;;;;;;;;;16.70;99.90;;;;;;5113672;28;19969;-80
2022/05/03 12:30:36;;;;;;;;;;;16.80;99.90;;;;;;5113359;28;19908;-79
2022/05/03 12:33:05;;;;;;;;;;;16.80;99.90;;;;;;5113214;28;19958;-79
2022/05/03 12:35:32;;;;;;;;;;;16.90;99.90;;;;;;5112857;28;19919;-78
2022/05/03 12:38:06;;;;;;;;;;;17.00;99.90;;;;;;5113141;28;19933;-79
2022/05/03 12:40:33;;;;;;;;;;;17.20;99.90;;;;;;5112248;28;20368;-79
2022/05/03 12:43:08;;;;;;;;;;;17.40;99.90;;;;;;5113480;28;20413;-80
2022/05/03 12:45:33;;;;;;;;;;;17.50;99.90;;;;;;5112379;28;19908;-80
2022/05/03 12:47:59;;;;;;;;;;;17.70;99.90;;;;;;5112863;28;20296;-77
2022/05/03 12:50:24;;;;;;;;;;;17.80;99.90;;;;;;5112708;28;19925;-79
2022/05/03 12:52:50;;;;;;;;;;;17.90;99.90;;;;;;5112280;28;19951;-80
2022/05/03 12:55:16;;;;;;;;;;;17.90;99.90;;;;;;5113246;28;19912;-80
2022/05/03 13:00:25;;;;;;;;;;;18.00;99.90;;;;;;5141727;27;19998;-80
2022/05/03 13:02:51;;;;;;;;;;;18.10;99.90;;;;;;5141384;27;19949;-80
2022/05/03 13:05:17;;;;;;;;;;;18.10;99.90;;;;;;5133645;27;19959;-80
2022/05/03 13:07:43;;;;;;;;;;;18.00;99.90;;;;;;5133162;27;20008;-80
2022/05/03 13:10:08;;;;;;;;;;;18.20;99.90;;;;;;5140003;27;19911;-80
2022/05/03 13:12:34;;;;;;;;;;;18.30;99.90;;;;;;5143528;27;20361;-79
2022/05/03 13:15:00;;;;;;;;;;;18.40;99.90;;;;;;5147586;27;20364;-81
2022/05/03 13:17:25;;;;;;;;;;;18.50;99.90;;;;;;5153023;27;19911;-80
2022/05/03 13:19:51;;;;;;;;;;;18.60;99.90;;;;;;5153404;27;20002;-79
2022/05/03 13:22:17;;;;;;;;;;;18.60;99.90;;;;;;5153959;27;19910;-80
2022/05/03 13:24:42;;;;;;;;;;;18.80;99.90;;;;;;5153543;27;20002;-80
2022/05/03 13:27:08;;;;;;;;;;;18.90;99.90;;;;;;5153760;27;20313;-79
2022/05/03 13:29:33;;;;;;;;;;;19.00;99.90;;;;;;5153628;27;19913;-80
2022/05/03 13:32:02;;;;;;;;;;;19.00;99.90;;;;;;5154133;27;19919;-81
2022/05/03 13:34:28;;;;;;;;;;;19.20;99.90;;;;;;5154057;27;20368;-79
2022/05/03 13:42:21;;;;;;;;;;;19.10;99.90;;;;;;5153577;27;19914;-80
2022/05/03 13:44:48;;;;;;;;;;;19.10;99.90;;;;;;5152488;27;19907;-79
2022/05/03 13:47:14;;;;;;;;;;;19.20;99.90;;;;;;5153453;27;19959;-80
2022/05/03 13:49:39;;;;;;;;;;;19.20;99.90;;;;;;5152643;27;19960;-79
2022/05/03 13:52:06;;;;;;;;;;;19.30;99.90;;;;;;5153100;27;20314;-79
2022/05/03 13:54:31;;;;;;;;;;;19.40;99.90;;;;;;5152671;27;19918;-78
2022/05/03 13:56:57;;;;;;;;;;;19.30;99.90;;;;;;5152644;27;19919;-80
2022/05/03 13:59:22;;;;;;;;;;;19.40;99.90;;;;;;5153319;27;19959;-81
2022/05/03 14:01:48;;;;;;;;;;;19.40;99.90;;;;;;5152308;27;19915;-80
2022/05/03 14:04:13;;;;;;;;;;;19.50;99.90;;;;;;5152463;27;19915;-79
2022/05/03 14:06:39;;;;;;;;;;;19.50;99.90;;;;;;5152109;27;19907;-79
2022/05/03 14:09:05;;;;;;;;;;;19.50;99.90;;;;;;5152407;27;19981;-79
2022/05/03 14:11:33;;;;;;;;;;;19.40;99.90;;;;;;5136302;27;19912;-78
2022/05/03 14:13:59;;;;;;;;;;;19.30;99.90;;;;;;5113603;28;19926;-80
2022/05/03 14:16:24;;;;;;;;;;;19.10;99.90;;;;;;5131718;28;19907;-80
2022/05/03 14:18:50;;;;;;;;;;;19.10;99.90;;;;;;5131235;28;19911;-79
2022/05/03 14:21:16;;;;;;;;;;;19.00;99.90;;;;;;5132156;28;19930;-78
2022/05/03 14:23:41;;;;;;;;;;;18.90;99.90;;;;;;5131515;28;19960;-80
2022/05/03 14:26:09;;;;;;;;;;;18.90;99.90;;;;;;5135569;27;19911;-79
2022/05/03 14:28:35;;;;;;;;;;;18.90;99.90;;;;;;5135226;27;19998;-78
2022/05/03 14:31:01;;;;;;;;;;;18.80;99.90;;;;;;5134927;27;20396;-80
2022/05/03 14:33:26;;;;;;;;;;;18.70;99.90;;;;;;5135915;27;20005;-79
2022/05/03 14:35:52;;;;;;;;;;;18.60;99.90;;;;;;5134429;27;19919;-80
2022/05/03 14:38:17;;;;;;;;;;;18.50;99.90;;;;;;5135444;27;20009;-80
2022/05/03 14:40:43;;;;;;;;;;;18.40;99.90;;;;;;5134102;27;19908;-80
2022/05/03 14:43:09;;;;;;;;;;;18.40;99.90;;;;;;5135619;27;19915;-79
2022/05/03 14:45:35;;;;;;;;;;;18.30;99.90;;;;;;5134526;27;20375;-78
2022/05/03 14:48:01;;;;;;;;;;;18.20;99.90;;;;;;5116703;27;20256;-80
2022/05/03 14:50:28;;;;;;;;;;;18.10;99.90;;;;;;5134568;27;20371;-79
2022/05/03 14:52:54;;;;;;;;;;;18.00;99.90;;;;;;5135285;27;19911;-79
2022/05/03 14:55:20;;;;;;;;;;;18.00;99.90;;;;;;5136438;27;20307;-79
2022/05/03 15:03:13;;;;;;;;;;;17.80;99.90;;;;;;5135713;27;19937;-79
2022/05/03 15:05:39;;;;;;;;;;;17.80;99.90;;;;;;5135532;27;19991;-78